Time;durP1;ratioP1;P1;durP2;ratioP2;P2;SDS_P1;SDS_P2;PMS_P1;PMS_P2;Temp;Humidity;BMP_temperature;BMP_pressure;BME280_temperature;BME280_humidity;BME280_pressure;Samples;Min_cycle;Max_cycle;Signal;HPM_P1;HPM_P2
2022/04/22 00:01:10;;;;;;;31.38;21.15;;;10.00;99.90;;;;;;4736733;28;10000048;-75
2022/04/22 00:03:37;;;;;;;33.03;21.40;;;10.00;99.90;;;;;;5089358;28;20032;-75
2022/04/22 00:06:03;;;;;;;32.67;21.15;;;9.90;99.90;;;;;;5092749;28;20025;-75
2022/04/22 00:08:28;;;;;;;31.85;21.23;;;9.90;99.90;;;;;;5090092;28;20028;-75
2022/04/22 00:13:38;;;;;;;31.13;20.60;;;9.80;99.90;;;;;;5101907;28;20079;-74
2022/04/22 00:16:04;;;;;;;30.50;21.38;;;9.80;99.90;;;;;;5096420;28;20031;-75
2022/04/22 00:18:34;;;;;;;27.85;19.70;;;9.80;99.90;;;;;;5098182;28;20458;-75
2022/04/22 00:21:00;;;;;;;29.85;19.67;;;9.70;99.90;;;;;;5089289;28;20015;-75
2022/04/22 00:23:27;;;;;;;28.40;19.60;;;9.70;99.90;;;;;;5091026;28;20020;-75
2022/04/22 00:25:58;;;;;;;33.47;20.30;;;9.60;99.90;;;;;;5097473;28;20438;-75
2022/04/22 00:28:24;;;;;;;27.83;19.63;;;9.60;99.90;;;;;;5091540;28;20023;-75
2022/04/22 00:30:50;;;;;;;25.88;18.40;;;9.50;99.90;;;;;;5093849;28;20043;-75
2022/04/22 00:33:16;;;;;;;29.63;19.63;;;9.60;99.90;;;;;;5094301;28;20032;-75
2022/04/22 00:35:45;;;;;;;27.80;18.50;;;9.60;99.90;;;;;;5088967;28;20498;-75
2022/04/22 00:38:11;;;;;;;28.98;19.23;;;9.60;99.90;;;;;;5087592;28;20042;-75
2022/04/22 00:40:38;;;;;;;26.13;18.55;;;9.60;99.90;;;;;;5097781;28;20028;-75
2022/04/22 00:43:13;;;;;;;29.60;19.38;;;9.60;99.90;;;;;;5090027;28;20028;-75
2022/04/22 00:45:38;;;;;;;29.88;19.40;;;9.60;99.90;;;;;;5086117;28;20030;-75
2022/04/22 00:48:04;;;;;;;27.48;19.15;;;9.60;99.90;;;;;;5091049;28;20020;-75
2022/04/22 00:50:30;;;;;;;29.23;19.63;;;9.60;99.90;;;;;;5092107;28;20020;-75
2022/04/22 00:52:56;;;;;;;29.00;19.75;;;9.60;99.90;;;;;;5092781;28;20457;-75
2022/04/22 00:55:22;;;;;;;28.15;19.73;;;9.60;99.90;;;;;;5092533;28;20035;-75
2022/04/22 00:57:49;;;;;;;27.73;19.80;;;9.60;99.90;;;;;;5087258;28;20035;-75
2022/04/22 01:00:15;;;;;;;29.73;20.10;;;9.60;99.90;;;;;;5091120;28;20682;-75
2022/04/22 01:02:40;;;;;;;30.45;19.45;;;9.60;99.90;;;;;;5091208;28;20016;-75
2022/04/22 01:10:37;;;;;;;26.85;19.23;;;9.60;99.90;;;;;;5092662;28;20563;-75
2022/04/22 01:13:03;;;;;;;28.10;20.02;;;9.60;99.90;;;;;;5091716;28;20019;-74
2022/04/22 01:15:29;;;;;;;26.80;19.95;;;9.60;99.90;;;;;;5084406;28;20077;-75
2022/04/22 01:17:55;;;;;;;31.02;20.83;;;9.60;99.90;;;;;;5091396;28;20012;-75
2022/04/22 01:20:21;;;;;;;26.80;20.35;;;9.60;99.90;;;;;;5091058;28;20028;-75
2022/04/22 01:22:46;;;;;;;30.92;21.25;;;9.60;99.90;;;;;;5086562;28;20048;-75
2022/04/22 01:25:12;;;;;;;33.72;21.75;;;9.70;99.90;;;;;;5097721;28;20028;-74
2022/04/22 01:27:37;;;;;;;29.38;21.08;;;9.70;99.90;;;;;;5089937;28;20038;-74
2022/04/22 01:30:06;;;;;;;33.85;22.52;;;9.70;99.90;;;;;;5097930;28;20035;-75
2022/04/22 01:32:32;;;;;;;30.98;21.85;;;9.70;99.90;;;;;;5096447;28;20040;-74
2022/04/22 01:34:57;;;;;;;31.33;21.75;;;9.70;99.90;;;;;;5096466;28;20023;-75
2022/04/22 01:37:23;;;;;;;31.40;22.27;;;9.70;99.90;;;;;;5091345;28;20475;-75
2022/04/22 01:39:49;;;;;;;32.10;22.38;;;9.60;99.90;;;;;;5091314;28;20796;-75
2022/04/22 01:42:15;;;;;;;35.85;23.65;;;9.60;99.90;;;;;;5090704;28;20032;-75
2022/04/22 01:44:41;;;;;;;34.95;23.33;;;9.60;99.90;;;;;;5088801;28;20039;-75
2022/04/22 01:47:07;;;;;;;36.17;23.60;;;9.60;99.90;;;;;;5102215;28;20062;-75
2022/04/22 01:49:33;;;;;;;31.42;23.02;;;9.60;99.90;;;;;;5104957;28;20020;-74
2022/04/22 01:51:58;;;;;;;35.08;23.25;;;9.60;99.90;;;;;;5094884;28;20024;-75
2022/04/22 01:54:24;;;;;;;30.25;22.05;;;9.60;99.90;;;;;;5094659;28;20116;-75
2022/04/22 01:56:50;;;;;;;31.58;23.05;;;9.60;99.90;;;;;;5090473;28;20036;-74
2022/04/22 01:59:15;;;;;;;33.58;22.65;;;9.60;99.90;;;;;;5095604;28;20357;-74
2022/04/22 02:01:41;;;;;;;33.45;22.83;;;9.60;99.90;;;;;;5088969;28;20034;-74
2022/04/22 02:04:07;;;;;;;33.15;22.50;;;9.60;99.90;;;;;;5085998;28;20035;-74
2022/04/22 02:06:32;;;;;;;33.38;22.42;;;9.60;99.90;;;;;;5100295;28;20035;-74
2022/04/22 02:08:58;;;;;;;35.67;23.23;;;9.60;99.90;;;;;;5099216;28;20023;-74
2022/04/22 02:11:24;;;;;;;35.67;22.10;;;9.60;99.90;;;;;;5091723;28;20035;-75
2022/04/22 02:13:49;;;;;;;33.28;22.38;;;9.60;99.90;;;;;;5084702;28;20027;-75
2022/04/22 02:16:15;;;;;;;32.47;22.63;;;9.60;99.90;;;;;;5091607;28;20102;-75
2022/04/22 02:18:42;;;;;;;32.63;22.30;;;9.60;99.90;;;;;;5093459;28;20541;-74
2022/04/22 02:21:09;;;;;;;33.15;20.98;;;9.60;99.90;;;;;;5089640;28;20032;-74
2022/04/22 02:23:35;;;;;;;33.72;22.05;;;9.60;99.90;;;;;;5096268;28;20036;-73
2022/04/22 02:26:03;;;;;;;31.90;21.38;;;9.60;99.90;;;;;;5091865;28;20089;-74
2022/04/22 02:28:32;;;;;;;32.45;22.48;;;9.60;99.90;;;;;;5088819;28;20033;-74
2022/04/22 02:31:18;;;;;;;33.67;22.58;;;9.60;99.90;;;;;;5086452;28;20433;-74
2022/04/22 02:33:44;;;;;;;35.72;22.20;;;9.60;99.90;;;;;;5095140;28;20459;-74
2022/04/22 02:36:10;;;;;;;35.47;22.90;;;9.60;99.90;;;;;;5089262;28;20115;-74
2022/04/22 02:38:36;;;;;;;34.13;22.88;;;9.50;99.90;;;;;;5087394;28;20058;-74
2022/04/22 02:46:31;;;;;;;36.10;22.17;;;9.50;99.90;;;;;;5098103;28;20092;-75
2022/04/22 02:48:58;;;;;;;35.92;23.55;;;9.50;99.90;;;;;;5092262;28;20035;-74
2022/04/22 02:51:24;;;;;;;33.92;22.00;;;9.50;99.90;;;;;;5103363;28;20087;-74
2022/04/22 02:53:51;;;;;;;34.90;23.63;;;9.50;99.90;;;;;;5089392;28;20039;-75
2022/04/22 02:56:18;;;;;;;36.30;23.15;;;9.50;99.90;;;;;;5090157;28;20024;-75
2022/04/22 02:58:44;;;;;;;38.17;23.52;;;9.50;99.90;;;;;;5089452;28;20088;-75
2022/04/22 03:01:10;;;;;;;36.45;23.48;;;9.50;99.90;;;;;;5089674;28;20152;-74
2022/04/22 03:03:36;;;;;;;35.90;23.23;;;9.50;99.90;;;;;;5089601;28;20523;-74
2022/04/22 03:06:02;;;;;;;34.80;22.92;;;9.50;99.90;;;;;;5088643;28;20031;-74
2022/04/22 03:08:28;;;;;;;36.40;23.40;;;9.50;99.90;;;;;;5094578;28;20046;-75
2022/04/22 03:10:53;;;;;;;33.90;22.83;;;9.50;99.90;;;;;;5096352;28;20517;-74
2022/04/22 03:13:19;;;;;;;36.33;23.27;;;9.50;99.90;;;;;;5089635;28;20059;-74
2022/04/22 03:15:45;;;;;;;35.08;23.20;;;9.50;99.90;;;;;;5085915;28;20032;-74
2022/04/22 03:18:11;;;;;;;33.53;22.83;;;9.50;99.90;;;;;;5096488;28;20475;-74
2022/04/22 03:20:37;;;;;;;33.28;22.27;;;9.40;99.90;;;;;;5091461;28;20031;-74
2022/04/22 03:23:03;;;;;;;35.42;22.75;;;9.40;99.90;;;;;;5090652;28;20612;-74
2022/04/22 03:25:29;;;;;;;32.50;22.00;;;9.40;99.90;;;;;;5089538;28;20020;-74
2022/04/22 03:27:54;;;;;;;34.78;23.13;;;9.40;99.90;;;;;;5095206;28;20024;-74
2022/04/22 03:30:20;;;;;;;33.35;22.48;;;9.50;99.90;;;;;;5097215;28;20038;-74
2022/04/22 03:32:45;;;;;;;34.42;22.63;;;9.40;99.90;;;;;;5093705;28;20040;-74
2022/04/22 03:35:11;;;;;;;31.42;21.73;;;9.40;99.90;;;;;;5085959;28;20024;-74
2022/04/22 03:37:37;;;;;;;41.53;23.95;;;9.40;99.90;;;;;;5089436;28;20085;-74
2022/04/22 03:40:03;;;;;;;33.42;22.73;;;9.50;99.90;;;;;;5093779;28;20076;-74
2022/04/22 03:42:29;;;;;;;34.10;23.45;;;9.50;99.90;;;;;;5105300;28;20032;-74
2022/04/22 03:44:58;;;;;;;35.85;24.42;;;9.50;99.90;;;;;;5085948;28;20039;-74
2022/04/22 03:47:24;;;;;;;35.30;24.00;;;9.40;99.90;;;;;;5091172;28;20035;-74
2022/04/22 03:49:50;;;;;;;34.45;23.80;;;9.40;99.90;;;;;;5098881;28;20067;-74
2022/04/22 03:52:15;;;;;;;37.47;24.38;;;9.40;99.90;;;;;;5096372;28;20564;-74
2022/04/22 03:54:42;;;;;;;35.95;23.92;;;9.40;99.90;;;;;;5088792;28;20051;-74
2022/04/22 03:59:54;;;;;;;35.35;24.02;;;9.40;99.90;;;;;;5090754;28;20043;-75
2022/04/22 04:02:20;;;;;;;33.33;23.13;;;9.40;99.90;;;;;;5089063;28;20080;-74
2022/04/22 04:04:47;;;;;;;34.58;22.70;;;9.40;99.90;;;;;;5089754;28;20035;-75
2022/04/22 04:07:13;;;;;;;36.35;23.77;;;9.40;99.90;;;;;;5095315;28;20032;-75
2022/04/22 04:17:51;;;;;;;34.55;23.75;;;9.40;99.90;;;;;;5093347;28;20039;-74
2022/04/22 04:23:17;;;;;;;34.92;22.95;;;9.40;99.90;;;;;;5091868;28;20074;-74
2022/04/22 04:25:44;;;;;;;32.78;22.50;;;9.40;99.90;;;;;;5082686;28;20036;-74
2022/04/22 04:28:11;;;;;;;33.67;22.38;;;9.40;99.90;;;;;;5095703;28;20027;-74
2022/04/22 04:30:41;;;;;;;34.40;23.42;;;9.40;99.90;;;;;;5088392;28;20020;-74
2022/04/22 04:33:07;;;;;;;34.38;23.27;;;9.40;99.90;;;;;;5092708;28;20041;-74
2022/04/22 04:35:34;;;;;;;33.47;22.88;;;9.40;99.90;;;;;;5096801;28;20021;-74
2022/04/22 04:38:00;;;;;;;34.22;23.30;;;9.40;99.90;;;;;;5088387;28;20547;-74
2022/04/22 04:40:26;;;;;;;34.00;22.83;;;9.40;99.90;;;;;;5095496;28;20082;-74
2022/04/22 04:42:52;;;;;;;33.40;22.92;;;9.40;99.90;;;;;;5088695;28;20384;-74
2022/04/22 04:45:19;;;;;;;31.50;22.00;;;9.40;99.90;;;;;;5087965;28;20024;-73
2022/04/22 04:47:45;;;;;;;34.30;23.08;;;9.40;99.90;;;;;;5096097;28;20059;-74
2022/04/22 04:50:12;;;;;;;32.92;22.17;;;9.40;99.90;;;;;;5093688;28;20400;-73
2022/04/22 04:52:38;;;;;;;30.27;21.85;;;9.40;99.90;;;;;;4737134;28;9999928;-73
2022/04/22 04:55:05;;;;;;;32.75;22.55;;;9.40;99.90;;;;;;5085181;28;20031;-73
2022/04/22 04:57:31;;;;;;;32.40;21.67;;;9.40;99.90;;;;;;5089434;28;20055;-73
2022/04/22 04:59:57;;;;;;;34.60;22.35;;;9.40;99.90;;;;;;5088288;28;20069;-74
2022/04/22 05:02:22;;;;;;;34.42;22.33;;;9.40;99.90;;;;;;5087577;28;20028;-74
2022/04/22 05:04:48;;;;;;;32.20;22.40;;;9.40;99.90;;;;;;5087107;28;20032;-74
2022/04/22 05:07:13;;;;;;;30.40;20.77;;;9.40;99.90;;;;;;5091379;28;20677;-74
2022/04/22 05:09:39;;;;;;;29.95;20.80;;;9.40;99.90;;;;;;5088830;28;20495;-74
2022/04/22 05:12:05;;;;;;;30.77;21.60;;;9.40;99.90;;;;;;5100510;28;20063;-74
2022/04/22 05:14:31;;;;;;;31.80;21.55;;;9.50;99.90;;;;;;5092951;28;20026;-74
2022/04/22 05:16:56;;;;;;;31.05;21.50;;;9.50;99.90;;;;;;5090203;28;20024;-74
2022/04/22 05:19:22;;;;;;;29.55;20.50;;;9.50;99.90;;;;;;5102167;28;20687;-74
2022/04/22 05:21:49;;;;;;;32.35;21.38;;;9.50;99.90;;;;;;5094764;28;20438;-74
2022/04/22 05:24:15;;;;;;;30.98;20.80;;;9.50;99.90;;;;;;5088615;28;20034;-74
2022/04/22 05:26:41;;;;;;;28.85;21.08;;;9.60;99.90;;;;;;5087452;28;20032;-73
2022/04/22 05:32:36;;;;;;;29.92;20.63;;;9.60;99.90;;;;;;5085266;28;20535;-74
2022/04/22 05:34:36;;;;;;;28.50;20.23;;;9.60;99.90;;;;;;5088243;28;20109;-74
2022/04/22 05:37:02;;;;;;;30.40;20.27;;;9.60;99.90;;;;;;5088088;28;20031;-74
2022/04/22 05:39:28;;;;;;;29.13;19.95;;;9.60;99.90;;;;;;5092784;28;20088;-74
2022/04/22 05:41:54;;;;;;;31.77;20.33;;;9.60;99.90;;;;;;5088825;28;20462;-74
2022/04/22 05:44:19;;;;;;;30.77;20.70;;;9.60;99.90;;;;;;5093995;28;20034;-74
2022/04/22 05:46:45;;;;;;;30.88;21.73;;;9.60;99.90;;;;;;5090204;28;20400;-73
2022/04/22 05:49:11;;;;;;;28.42;20.60;;;9.60;99.90;;;;;;5094878;28;20027;-74
2022/04/22 05:51:36;;;;;;;29.45;21.30;;;9.60;99.90;;;;;;5095875;28;20028;-74
2022/04/22 05:54:02;;;;;;;31.90;21.35;;;9.60;99.90;;;;;;5089747;28;20012;-74
2022/04/22 05:56:29;;;;;;;29.60;20.00;;;9.60;99.90;;;;;;5090627;28;20127;-74
2022/04/22 05:58:55;;;;;;;29.67;20.42;;;9.70;99.90;;;;;;5088086;28;20039;-74
2022/04/22 06:01:22;;;;;;;28.33;20.15;;;9.70;99.90;;;;;;5090896;28;20032;-74
2022/04/22 06:03:48;;;;;;;28.90;19.90;;;9.70;99.90;;;;;;5103406;28;20035;-74
2022/04/22 06:06:14;;;;;;;28.45;20.27;;;9.70;99.90;;;;;;5089258;28;20036;-74
2022/04/22 06:11:24;;;;;;;28.55;19.92;;;9.60;99.90;;;;;;5091997;28;20589;-74
2022/04/22 06:13:49;;;;;;;29.30;20.30;;;9.60;99.90;;;;;;5087534;28;20059;-74
2022/04/22 06:16:15;;;;;;;28.80;20.30;;;9.60;99.90;;;;;;5090233;28;20047;-74
2022/04/22 06:18:41;;;;;;;31.70;20.45;;;9.70;99.90;;;;;;5086057;28;20075;-74
2022/04/22 06:21:06;;;;;;;30.17;20.33;;;9.60;99.90;;;;;;5097814;28;20047;-74
2022/04/22 06:23:34;;;;;;;27.95;19.90;;;9.70;99.90;;;;;;5099153;28;20027;-75
2022/04/22 06:25:59;;;;;;;29.75;20.98;;;9.70;99.90;;;;;;5100713;28;20094;-75
2022/04/22 06:28:25;;;;;;;29.65;20.48;;;9.70;99.90;;;;;;5087656;28;20135;-75
2022/04/22 06:30:51;;;;;;;26.52;20.30;;;9.80;99.90;;;;;;5088371;28;20015;-75
2022/04/22 06:33:18;;;;;;;27.90;20.00;;;9.80;99.90;;;;;;5080599;28;20035;-75
2022/04/22 06:35:44;;;;;;;28.90;20.95;;;9.90;99.90;;;;;;5087819;28;20427;-75
2022/04/22 06:38:14;;;;;;;30.52;19.88;;;10.00;99.90;;;;;;5087607;28;20492;-75
2022/04/22 06:46:09;;;;;;;27.33;19.48;;;10.00;99.90;;;;;;5089414;28;20424;-75
2022/04/22 06:48:35;;;;;;;29.95;20.05;;;10.00;99.90;;;;;;5095289;28;20259;-75
2022/04/22 06:51:02;;;;;;;29.60;21.08;;;10.00;99.90;;;;;;5090552;28;20369;-75
2022/04/22 06:53:28;;;;;;;29.00;21.27;;;10.00;99.90;;;;;;5091565;28;20032;-75
2022/04/22 06:55:58;;;;;;;30.08;20.30;;;10.10;99.90;;;;;;5093570;28;20030;-75
2022/04/22 06:58:25;;;;;;;29.83;21.63;;;10.10;99.90;;;;;;5096714;28;20089;-74
2022/04/22 07:00:51;;;;;;;28.00;20.58;;;10.10;99.90;;;;;;5095310;28;20039;-74
2022/04/22 07:03:17;;;;;;;32.58;22.13;;;10.10;99.90;;;;;;5099376;28;20028;-74
2022/04/22 07:05:45;;;;;;;35.33;21.40;;;10.20;99.90;;;;;;5097455;28;20036;-74
2022/04/22 07:08:14;;;;;;;30.42;21.50;;;10.30;99.90;;;;;;5088093;28;20031;-74
2022/04/22 07:10:41;;;;;;;30.02;21.75;;;10.30;99.90;;;;;;5095231;28;20229;-74
2022/04/22 07:13:07;;;;;;;30.48;22.23;;;10.40;99.90;;;;;;5101173;28;20491;-74
2022/04/22 07:15:33;;;;;;;30.20;21.75;;;10.50;99.90;;;;;;5086640;28;20111;-74
2022/04/22 07:17:59;;;;;;;32.70;23.00;;;10.50;99.90;;;;;;5095179;28;20022;-74
2022/04/22 07:20:26;;;;;;;30.52;22.40;;;10.70;99.90;;;;;;5093889;28;20062;-74
2022/04/22 07:22:53;;;;;;;31.73;22.42;;;10.80;99.90;;;;;;5091764;28;20027;-74
2022/04/22 07:25:20;;;;;;;30.90;21.23;;;10.80;99.90;;;;;;5085272;28;20057;-74
2022/04/22 07:27:49;;;;;;;30.17;21.90;;;10.80;99.90;;;;;;5081303;28;20649;-74
2022/04/22 07:30:17;;;;;;;29.58;21.45;;;10.80;99.90;;;;;;5091334;28;20235;-74
2022/04/22 07:32:47;;;;;;;29.73;21.20;;;10.80;99.90;;;;;;5083808;28;20442;-75
2022/04/22 07:35:15;;;;;;;28.95;21.67;;;10.90;99.90;;;;;;5097089;28;20122;-74
2022/04/22 07:37:48;;;;;;;35.15;22.75;;;10.90;99.90;;;;;;5090274;28;20036;-74
2022/04/22 07:40:15;;;;;;;35.27;23.30;;;10.90;99.90;;;;;;5093788;28;20031;-75
2022/04/22 07:46:46;;;;;;;33.75;24.08;;;11.00;99.90;;;;;;5103219;28;20366;-75
2022/04/22 07:48:16;;;;;;;33.22;23.95;;;11.00;99.90;;;;;;5104765;28;20444;-75
2022/04/22 07:50:43;;;;;;;35.53;22.75;;;10.90;99.90;;;;;;5095558;28;20024;-75
2022/04/22 07:53:08;;;;;;;28.83;21.65;;;10.90;99.90;;;;;;5093695;28;20027;-75
2022/04/22 07:55:34;;;;;;;30.15;21.88;;;10.90;99.90;;;;;;5089838;28;20568;-75
2022/04/22 07:58:00;;;;;;;32.70;23.27;;;10.80;99.90;;;;;;5097390;28;20024;-76
2022/04/22 08:00:26;;;;;;;31.38;22.77;;;10.80;99.90;;;;;;5101072;28;20019;-76
2022/04/22 08:02:51;;;;;;;31.00;22.80;;;10.90;99.90;;;;;;5095170;28;20130;-75
2022/04/22 08:05:17;;;;;;;32.47;22.08;;;11.00;99.90;;;;;;5093977;28;20111;-76
2022/04/22 08:07:43;;;;;;;33.05;23.42;;;11.00;99.90;;;;;;5096537;28;20420;-76
2022/04/22 08:10:08;;;;;;;28.25;21.60;;;11.10;99.90;;;;;;5102283;28;20031;-76
2022/04/22 08:12:34;;;;;;;30.38;22.77;;;11.20;99.90;;;;;;5093895;28;20115;-75
2022/04/22 08:15:03;;;;;;;32.88;23.52;;;11.30;99.90;;;;;;5084930;28;20118;-75
2022/04/22 08:17:36;;;;;;;33.38;24.10;;;11.30;99.90;;;;;;5099908;28;20122;-75
2022/04/22 08:20:05;;;;;;;33.08;23.88;;;11.30;99.90;;;;;;5096905;28;20298;-76
2022/04/22 08:22:31;;;;;;;32.42;24.67;;;11.30;99.90;;;;;;5093385;28;20043;-76
2022/04/22 08:24:57;;;;;;;32.17;24.10;;;11.30;99.90;;;;;;5085947;28;20109;-76
2022/04/22 08:27:24;;;;;;;32.22;23.88;;;11.30;99.90;;;;;;5104216;28;20032;-75
2022/04/22 08:29:50;;;;;;;33.85;24.35;;;11.30;99.90;;;;;;5096824;28;20051;-75
2022/04/22 08:32:15;;;;;;;31.27;23.60;;;11.40;99.90;;;;;;5089531;28;20040;-75
2022/04/22 08:34:41;;;;;;;35.72;24.13;;;11.40;99.90;;;;;;5088073;28;20024;-76
2022/04/22 08:37:06;;;;;;;31.17;23.85;;;11.40;99.90;;;;;;5090999;28;20084;-76
2022/04/22 08:39:32;;;;;;;31.73;24.17;;;11.40;99.90;;;;;;5092351;28;20023;-76
2022/04/22 08:42:00;;;;;;;33.10;23.60;;;11.50;99.90;;;;;;5092394;28;20050;-76
2022/04/22 08:44:27;;;;;;;32.92;24.17;;;11.60;99.90;;;;;;5088988;28;20773;-76
2022/04/22 08:52:24;;;;;;;35.78;24.80;;;12.00;99.90;;;;;;5099333;28;20081;-75
2022/04/22 08:54:52;;;;;;;31.02;23.98;;;12.10;99.90;;;;;;5089038;28;20051;-75
2022/04/22 08:57:22;;;;;;;34.03;25.58;;;12.30;99.90;;;;;;5093086;28;20441;-76
2022/04/22 08:59:48;;;;;;;30.48;23.80;;;12.40;99.90;;;;;;5089111;28;20027;-76
2022/04/22 09:02:17;;;;;;;34.35;24.65;;;12.40;99.90;;;;;;5089316;28;20038;-76
2022/04/22 09:04:44;;;;;;;32.63;24.38;;;12.30;99.90;;;;;;5092130;28;20059;-76
2022/04/22 09:07:13;;;;;;;31.08;24.27;;;12.30;99.90;;;;;;5089634;28;20077;-76
2022/04/22 09:09:40;;;;;;;30.15;23.67;;;12.30;99.90;;;;;;5093392;28;20080;-76
2022/04/22 09:12:13;;;;;;;31.38;23.38;;;12.50;99.90;;;;;;5094140;28;20077;-76
2022/04/22 09:14:44;;;;;;;;;;;12.60;99.90;;;;;;5088721;28;20127;-75
2022/04/22 09:17:15;;;;;;;29.27;22.13;;;12.70;99.90;;;;;;5089297;28;19922;-75
2022/04/22 09:19:43;;;;;;;28.83;22.05;;;13.00;99.90;;;;;;5094675;28;20043;-75
2022/04/22 09:22:09;;;;;;;29.67;21.45;;;13.20;99.90;;;;;;5087958;28;20565;-75
2022/04/22 09:24:46;;;;;;;28.77;21.08;;;13.30;99.90;;;;;;5087386;28;20144;-74
2022/04/22 09:27:13;;;;;;;27.10;20.50;;;13.50;99.90;;;;;;5092870;28;20328;-75
2022/04/22 09:29:42;;;;;;;29.73;21.92;;;13.50;99.90;;;;;;5093250;28;20084;-75
2022/04/22 09:32:11;;;;;;;26.40;20.55;;;13.50;99.90;;;;;;5092912;28;20036;-75
2022/04/22 09:34:39;;;;;;;27.80;20.70;;;13.70;99.90;;;;;;5091901;28;20400;-74
2022/04/22 09:42:50;;;;;;;27.90;21.63;;;13.20;99.90;;;;;;5089365;28;20116;-75
2022/04/22 09:45:15;;;;;;;26.67;21.25;;;13.20;99.90;;;;;;5085155;28;20028;-75
2022/04/22 09:47:41;;;;;;;28.92;22.30;;;13.00;99.90;;;;;;5093289;28;20447;-75
2022/04/22 09:50:11;;;;;;;30.58;23.25;;;13.10;99.90;;;;;;5096584;28;20670;-75
2022/04/22 09:52:43;;;;;;;30.83;24.30;;;13.10;99.90;;;;;;5084746;28;20034;-75
2022/04/22 09:55:10;;;;;;;30.80;23.67;;;13.20;99.90;;;;;;5085650;28;20745;-75
2022/04/22 09:57:56;;;;;;;29.15;22.98;;;13.20;99.90;;;;;;5100049;28;20039;-75
2022/04/22 10:00:23;;;;;;;30.40;23.08;;;13.10;99.90;;;;;;5088389;28;20031;-76
2022/04/22 10:02:50;;;;;;;29.58;22.83;;;13.30;99.90;;;;;;5094218;28;20023;-75
2022/04/22 10:05:19;;;;;;;31.38;22.75;;;13.40;99.90;;;;;;5089415;28;20038;-75
2022/04/22 10:07:47;;;;;;;32.25;24.38;;;13.40;99.90;;;;;;5088564;28;20387;-75
2022/04/22 10:10:14;;;;;;;30.90;23.92;;;13.50;99.90;;;;;;5091084;28;20024;-75
2022/04/22 10:12:42;;;;;;;32.58;23.80;;;13.50;99.90;;;;;;5094566;28;20106;-75
2022/04/22 10:15:09;;;;;;;29.08;23.33;;;13.70;99.90;;;;;;5086044;28;20028;-75
2022/04/22 10:17:37;;;;;;;27.88;22.65;;;13.60;99.90;;;;;;5089872;28;20024;-75
2022/04/22 10:20:05;;;;;;;30.52;23.42;;;13.50;99.90;;;;;;5099881;28;20100;-75
2022/04/22 10:22:33;;;;;;;30.67;23.30;;;13.50;99.90;;;;;;5096307;28;20047;-75
2022/04/22 10:25:03;;;;;;;28.95;22.13;;;13.50;99.90;;;;;;5096770;28;20459;-75
2022/04/22 10:27:39;;;;;;;29.33;21.05;;;13.70;99.90;;;;;;5086156;28;20036;-75
2022/04/22 10:30:11;;;;;;;27.55;19.35;;;13.90;99.90;;;;;;5090841;28;20394;-75
2022/04/22 10:32:43;;;;;;;23.93;19.27;;;13.90;99.90;;;;;;5049958;28;21696;-75
2022/04/22 10:35:09;;;;;;;24.38;19.27;;;13.80;99.90;;;;;;5047033;28;20026;-75
2022/04/22 10:37:38;;;;;;;24.92;20.02;;;13.70;99.90;;;;;;5047884;28;20042;-75
2022/04/22 10:40:05;;;;;;;26.38;19.85;;;13.60;99.90;;;;;;5059480;28;20032;-75
2022/04/22 10:42:31;;;;;;;26.95;21.50;;;13.50;99.90;;;;;;5059114;28;20029;-74
2022/04/22 10:47:48;;;;;;;26.35;20.73;;;13.40;99.90;;;;;;5047850;28;20035;-81
2022/04/22 10:50:39;;;;;;;27.30;20.73;;;13.50;99.90;;;;;;5048749;28;20032;-82
2022/04/22 10:53:23;;;;;;;26.15;20.42;;;13.40;99.90;;;;;;5053412;28;20438;-79
2022/04/22 10:55:49;;;;;;;26.50;20.55;;;13.40;99.90;;;;;;5052422;28;20086;-82
2022/04/22 10:58:17;;;;;;;29.58;21.48;;;13.50;99.90;;;;;;5054860;28;20115;-82
2022/04/22 11:00:50;;;;;;;26.95;21.08;;;13.60;99.90;;;;;;5059541;28;20035;-78
2022/04/22 11:03:34;;;;;;;26.83;22.10;;;13.80;99.90;;;;;;5059719;28;20036;-79
2022/04/22 11:06:01;;;;;;;24.95;20.73;;;14.10;99.90;;;;;;5053372;28;20065;-84
2022/04/22 11:08:31;;;;;;;27.45;21.42;;;14.00;99.90;;;;;;5053003;28;20119;-83
2022/04/22 11:11:01;;;;;;;24.70;20.75;;;13.90;99.90;;;;;;5051393;28;20539;-81
2022/04/22 11:13:29;;;;;;;27.02;21.67;;;14.10;99.90;;;;;;5052670;28;20107;-78
2022/04/22 11:16:22;;;;;;;27.70;19.92;;;14.30;99.90;;;;;;5049764;28;20032;-78
2022/04/22 11:19:18;;;;;;;23.48;19.30;;;14.60;99.90;;;;;;5053576;28;20082;-78
2022/04/22 11:21:46;;;;;;;24.45;18.92;;;14.90;99.90;;;;;;5064657;28;20405;-84
2022/04/22 11:24:19;;;;;;;24.08;18.67;;;15.00;99.90;;;;;;5054915;28;20020;-79
2022/04/22 11:26:45;;;;;;;24.80;18.43;;;15.10;99.90;;;;;;5048112;28;20071;-82
2022/04/22 11:29:12;;;;;;;21.60;18.13;;;15.20;99.90;;;;;;5055048;28;20270;-79
2022/04/22 11:31:39;;;;;;;21.80;17.70;;;15.10;99.90;;;;;;5067142;28;20043;-79
2022/04/22 11:34:11;;;;;;;25.17;18.05;;;15.30;99.90;;;;;;5090950;28;20158;-79
2022/04/22 11:36:46;;;;;;;24.50;17.08;;;15.30;99.90;;;;;;5104282;28;20036;-79
2022/04/22 11:39:23;;;;;;;22.35;19.05;;;15.30;99.90;;;;;;5074624;28;20052;-81
2022/04/22 11:42:00;;;;;;;25.52;21.15;;;15.20;99.90;;;;;;5092041;28;20046;-82
2022/04/22 11:44:26;;;;;;;24.25;19.60;;;15.00;99.90;;;;;;5090604;28;20547;-83
2022/04/22 11:46:53;;;;;;;24.75;20.42;;;15.00;99.90;;;;;;5093551;28;20123;-77
2022/04/22 11:49:19;;;;;;;23.35;20.08;;;14.90;99.90;;;;;;5094617;28;20028;-78
2022/04/22 11:51:45;;;;;;;23.25;19.42;;;14.80;99.90;;;;;;5091518;28;20024;-78
2022/04/22 11:54:11;;;;;;;23.83;17.77;;;15.00;99.90;;;;;;5098945;28;20042;-78
2022/04/22 11:56:36;;;;;;;21.67;16.77;;;14.80;99.90;;;;;;5092571;28;20113;-76
2022/04/22 11:59:02;;;;;;;20.02;16.25;;;14.60;99.90;;;;;;5090571;28;20024;-78
2022/04/22 12:08:00;;;;;;;20.70;16.90;;;15.20;99.90;;;;;;5096845;28;20043;-77
2022/04/22 12:10:00;;;;;;;24.88;20.35;;;15.10;99.90;;;;;;5094462;28;20065;-75
2022/04/22 12:12:31;;;;;;;26.02;19.55;;;15.10;99.90;;;;;;5093550;28;20032;-77
2022/04/22 12:15:01;;;;;;;23.48;17.95;;;15.00;99.90;;;;;;5096058;28;20514;-76
2022/04/22 12:17:27;;;;;;;26.17;20.75;;;14.80;99.90;;;;;;5093433;28;20098;-74
2022/04/22 12:19:53;;;;;;;26.45;19.92;;;14.70;99.90;;;;;;5092274;28;20023;-76
2022/04/22 12:22:20;;;;;;;24.15;19.90;;;14.70;99.90;;;;;;5097296;28;20119;-76
2022/04/22 12:25:13;;;;;;;23.20;19.60;;;14.50;99.90;;;;;;5094700;28;20039;-76
2022/04/22 12:27:40;;;;;;;24.80;19.00;;;14.50;99.90;;;;;;5091483;28;20027;-76
2022/04/22 12:30:14;;;;;;;24.92;20.50;;;14.60;99.90;;;;;;5095042;28;20059;-75
2022/04/22 12:32:41;;;;;;;28.15;21.88;;;14.80;99.90;;;;;;5087456;28;20047;-77
2022/04/22 12:35:13;;;;;;;27.08;21.30;;;14.70;99.90;;;;;;5106185;28;20061;-77
2022/04/22 12:38:06;;;;;;;24.63;20.55;;;14.70;99.90;;;;;;5093777;28;20040;-76
2022/04/22 12:40:48;;;;;;;25.35;20.98;;;14.60;99.90;;;;;;5088514;28;20110;-74
2022/04/22 12:43:33;;;;;;;25.02;21.15;;;14.70;99.90;;;;;;5093788;28;20031;-75
2022/04/22 12:52:12;;;;;;;23.60;20.35;;;14.40;99.90;;;;;;5102154;28;20438;-73
2022/04/22 12:54:39;;;;;;;24.25;20.25;;;14.30;99.90;;;;;;5091998;28;20613;-74
2022/04/22 12:57:05;;;;;;;28.10;20.17;;;14.10;99.90;;;;;;5107890;28;20032;-74
2022/04/22 12:59:49;;;;;;;24.75;21.23;;;14.10;99.90;;;;;;4373493;28;10000919;-74
2022/04/22 13:02:15;;;;;;;23.67;20.35;;;14.20;99.90;;;;;;5063572;28;20045;-82
2022/04/22 13:04:58;;;;;;;23.90;20.10;;;14.30;99.90;;;;;;5072062;28;20046;-79
2022/04/22 13:07:25;;;;;;;21.92;19.23;;;14.40;99.90;;;;;;5070806;28;20036;-79
2022/04/22 13:09:51;;;;;;;24.30;19.23;;;14.50;99.90;;;;;;5067527;28;20090;-80
2022/04/22 13:12:17;;;;;;;23.70;19.15;;;14.70;99.90;;;;;;5064644;28;20024;-77
2022/04/22 13:14:42;;;;;;;23.52;19.20;;;14.70;99.90;;;;;;5063672;28;20042;-80
2022/04/22 13:17:18;;;;;;;26.00;19.25;;;14.80;99.90;;;;;;5072565;28;20092;-79
2022/04/22 13:19:44;;;;;;;21.77;18.25;;;14.80;99.90;;;;;;5064727;28;20059;-81
2022/04/22 13:22:10;;;;;;;24.80;18.92;;;14.90;99.90;;;;;;5073742;28;20040;-81
2022/04/22 13:24:35;;;;;;;21.38;17.83;;;15.10;99.90;;;;;;5068036;28;20131;-79
2022/04/22 13:27:01;;;;;;;21.58;18.67;;;15.20;99.90;;;;;;5071829;28;20036;-77
2022/04/22 13:29:26;;;;;;;23.08;19.13;;;15.30;99.90;;;;;;5067275;28;20032;-77
2022/04/22 13:31:52;;;;;;;21.17;18.17;;;15.40;99.90;;;;;;5082782;27;20484;-80
2022/04/22 13:34:18;;;;;;;23.65;18.33;;;15.50;99.90;;;;;;5083868;28;20078;-82
2022/04/22 13:36:43;;;;;;;21.35;17.55;;;15.60;99.90;;;;;;5092122;28;20031;-80
2022/04/22 13:39:09;;;;;;;23.27;17.60;;;15.60;99.90;;;;;;5098555;28;20020;-80
2022/04/22 13:41:35;;;;;;;19.33;17.00;;;15.70;99.90;;;;;;5090726;28;20107;-74